sensor_id;sensor_type;location;lat;lon;timestamp;temperature;humidity
21417;DHT22;10869;52.238;10.716;2022-11-15T04:02:01;10.70;99.90
21417;DHT22;10869;52.238;10.716;2022-11-15T04:04:28;10.70;99.90
21417;DHT22;10869;52.238;10.716;2022-11-15T04:06:54;10.70;99.90
21417;DHT22;10869;52.238;10.716;2022-11-15T04:09:20;10.70;99.90
21417;DHT22;10869;52.238;10.716;2022-11-15T04:11:46;10.70;99.90
21417;DHT22;10869;52.238;10.716;2022-11-15T04:14:12;10.70;99.90
21417;DHT22;10869;52.238;10.716;2022-11-15T04:16:38;10.70;99.90
21417;DHT22;10869;52.238;10.716;2022-11-15T04:19:04;10.70;99.90
21417;DHT22;10869;52.238;10.716;2022-11-15T04:21:50;10.80;99.90
21417;DHT22;10869;52.238;10.716;2022-11-15T04:24:34;11.00;99.90
21417;DHT22;10869;52.238;10.716;2022-11-15T04:27:01;11.00;99.90
21417;DHT22;10869;52.238;10.716;2022-11-15T04:29:26;11.00;99.90
21417;DHT22;10869;52.238;10.716;2022-11-15T04:32:03;11.10;99.90
21417;DHT22;10869;52.238;10.716;2022-11-15T04:34:32;11.10;99.90
21417;DHT22;10869;52.238;10.716;2022-11-15T04:37:12;11.00;99.90
21417;DHT22;10869;52.238;10.716;2022-11-15T04:39:56;11.00;99.90
21417;DHT22;10869;52.238;10.716;2022-11-15T04:42:30;11.00;99.90
21417;DHT22;10869;52.238;10.716;2022-11-15T04:45:34;11.00;99.90
21417;DHT22;10869;52.238;10.716;2022-11-15T04:48:00;10.90;99.90
21417;DHT22;10869;52.238;10.716;2022-11-15T04:50:26;10.90;99.90
21417;DHT22;10869;52.238;10.716;2022-11-15T04:52:53;10.90;99.90
21417;DHT22;10869;52.238;10.716;2022-11-15T04:55:19;10.90;99.90
21417;DHT22;10869;52.238;10.716;2022-11-15T04:57:45;10.90;99.90
21417;DHT22;10869;52.238;10.716;2022-11-15T05:00:14;10.90;99.90
21417;DHT22;10869;52.238;10.716;2022-11-15T05:02:40;11.00;99.90
21417;DHT22;10869;52.238;10.716;2022-11-15T05:05:24;11.00;99.90
21417;DHT22;10869;52.238;10.716;2022-11-15T05:07:50;11.00;99.90
21417;DHT22;10869;52.238;10.716;2022-11-15T05:10:16;11.00;99.90
21417;DHT22;10869;52.238;10.716;2022-11-15T05:12:42;11.00;99.90
21417;DHT22;10869;52.238;10.716;2022-11-15T05:15:08;11.00;99.90
21417;DHT22;10869;52.238;10.716;2022-11-15T05:17:34;11.10;99.90
21417;DHT22;10869;52.238;10.716;2022-11-15T05:20:00;11.10;99.90
21417;DHT22;10869;52.238;10.716;2022-11-15T05:22:26;11.10;99.90
21417;DHT22;10869;52.238;10.716;2022-11-15T05:24:52;11.00;99.90
21417;DHT22;10869;52.238;10.716;2022-11-15T05:27:18;11.00;99.90
21417;DHT22;10869;52.238;10.716;2022-11-15T05:29:43;11.00;99.90
21417;DHT22;10869;52.238;10.716;2022-11-15T05:32:12;10.90;99.90
21417;DHT22;10869;52.238;10.716;2022-11-15T05:34:38;10.80;99.90
21417;DHT22;10869;52.238;10.716;2022-11-15T05:37:04;10.80;99.90
21417;DHT22;10869;52.238;10.716;2022-11-15T05:39:30;10.70;99.90
21417;DHT22;10869;52.238;10.716;2022-11-15T05:42:09;10.60;99.90
21417;DHT22;10869;52.238;10.716;2022-11-15T05:44:36;10.60;99.90
21417;DHT22;10869;52.238;10.716;2022-11-15T05:47:05;10.50;99.90
21417;DHT22;10869;52.238;10.716;2022-11-15T05:49:35;10.50;99.90
21417;DHT22;10869;52.238;10.716;2022-11-15T05:52:05;10.40;99.90
21417;DHT22;10869;52.238;10.716;2022-11-15T05:54:33;10.50;99.90
21417;DHT22;10869;52.238;10.716;2022-11-15T05:56:59;10.40;99.90
21417;DHT22;10869;52.238;10.716;2022-11-15T05:59:27;10.40;99.90
21417;DHT22;10869;52.238;10.716;2022-11-15T06:01:53;10.50;99.90
21417;DHT22;10869;52.238;10.716;2022-11-15T06:04:19;10.50;99.90
21417;DHT22;10869;52.238;10.716;2022-11-15T06:06:45;10.50;99.90
21417;DHT22;10869;52.238;10.716;2022-11-15T06:09:10;10.40;99.90
21417;DHT22;10869;52.238;10.716;2022-11-15T06:11:38;10.40;99.90
21417;DHT22;10869;52.238;10.716;2022-11-15T06:14:04;10.40;99.90
21417;DHT22;10869;52.238;10.716;2022-11-15T06:16:29;10.40;99.90
21417;DHT22;10869;52.238;10.716;2022-11-15T06:18:55;10.30;99.90
21417;DHT22;10869;52.238;10.716;2022-11-15T06:21:21;10.30;99.90
21417;DHT22;10869;52.238;10.716;2022-11-15T06:23:48;10.20;99.90
21417;DHT22;10869;52.238;10.716;2022-11-15T06:26:14;10.20;99.90
21417;DHT22;10869;52.238;10.716;2022-11-15T06:28:41;10.10;99.90
21417;DHT22;10869;52.238;10.716;2022-11-15T06:31:09;10.10;99.90
21417;DHT22;10869;52.238;10.716;2022-11-15T06:33:39;10.10;99.90
21417;DHT22;10869;52.238;10.716;2022-11-15T06:36:13;10.00;99.90
21417;DHT22;10869;52.238;10.716;2022-11-15T06:38:42;10.00;99.90
21417;DHT22;10869;52.238;10.716;2022-11-15T06:41:09;10.00;99.90
21417;DHT22;10869;52.238;10.716;2022-11-15T06:43:36;10.10;99.90
21417;DHT22;10869;52.238;10.716;2022-11-15T06:46:03;10.10;99.90
21417;DHT22;10869;52.238;10.716;2022-11-15T06:48:30;10.10;99.90
21417;DHT22;10869;52.238;10.716;2022-11-15T06:51:00;10.10;99.90
21417;DHT22;10869;52.238;10.716;2022-11-15T06:53:26;10.10;99.90
21417;DHT22;10869;52.238;10.716;2022-11-15T06:55:52;10.20;99.90
21417;DHT22;10869;52.238;10.716;2022-11-15T06:58:20;10.30;99.90
21417;DHT22;10869;52.238;10.716;2022-11-15T07:00:46;10.30;99.90
21417;DHT22;10869;52.238;10.716;2022-11-15T07:06:33;10.40;99.90
21417;DHT22;10869;52.238;10.716;2022-11-15T07:12:21;10.40;99.90
21417;DHT22;10869;52.238;10.716;2022-11-15T07:18:09;10.50;99.90
21417;DHT22;10869;52.238;10.716;2022-11-15T07:23:57;10.60;99.90
21417;DHT22;10869;52.238;10.716;2022-11-15T07:29:45;10.70;99.90
21417;DHT22;10869;52.238;10.716;2022-11-15T07:32:11;10.70;99.90
21417;DHT22;10869;52.238;10.716;2022-11-15T07:34:38;10.80;99.90
21417;DHT22;10869;52.238;10.716;2022-11-15T07:37:09;10.80;99.90
21417;DHT22;10869;52.238;10.716;2022-11-15T07:43:02;11.00;99.90
21417;DHT22;10869;52.238;10.716;2022-11-15T07:45:32;11.00;99.90
21417;DHT22;10869;52.238;10.716;2022-11-15T07:48:04;11.10;99.90
21417;DHT22;10869;52.238;10.716;2022-11-15T07:54:01;11.20;99.90
21417;DHT22;10869;52.238;10.716;2022-11-15T07:59:50;11.20;99.90
21417;DHT22;10869;52.238;10.716;2022-11-15T08:02:17;11.30;99.90
21417;DHT22;10869;52.238;10.716;2022-11-15T08:04:44;11.40;99.90
21417;DHT22;10869;52.238;10.716;2022-11-15T08:07:10;11.50;99.90
21417;DHT22;10869;52.238;10.716;2022-11-15T08:09:37;11.60;99.90
21417;DHT22;10869;52.238;10.716;2022-11-15T08:12:04;11.70;99.90
21417;DHT22;10869;52.238;10.716;2022-11-15T08:14:30;11.80;99.90
21417;DHT22;10869;52.238;10.716;2022-11-15T08:16:56;11.90;99.90
21417;DHT22;10869;52.238;10.716;2022-11-15T08:19:25;12.00;99.90
21417;DHT22;10869;52.238;10.716;2022-11-15T08:21:57;12.20;99.90
21417;DHT22;10869;52.238;10.716;2022-11-15T08:24:25;12.20;99.90
21417;DHT22;10869;52.238;10.716;2022-11-15T08:26:55;12.40;99.90
21417;DHT22;10869;52.238;10.716;2022-11-15T08:29:28;12.60;99.90
21417;DHT22;10869;52.238;10.716;2022-11-15T08:35:12;12.80;99.90
21417;DHT22;10869;52.238;10.716;2022-11-15T08:37:59;12.90;99.90
21417;DHT22;10869;52.238;10.716;2022-11-15T08:40:24;12.90;99.90
21417;DHT22;10869;52.238;10.716;2022-11-15T08:42:54;12.90;99.90
21417;DHT22;10869;52.238;10.716;2022-11-15T08:45:21;13.00;99.90
21417;DHT22;10869;52.238;10.716;2022-11-15T08:51:09;13.10;99.90
21417;DHT22;10869;52.238;10.716;2022-11-15T08:53:35;13.20;99.90
21417;DHT22;10869;52.238;10.716;2022-11-15T08:56:01;13.20;99.90
21417;DHT22;10869;52.238;10.716;2022-11-15T08:58:33;13.20;99.90
21417;DHT22;10869;52.238;10.716;2022-11-15T09:00:59;13.20;99.90
21417;DHT22;10869;52.238;10.716;2022-11-15T09:06:00;13.20;99.90
21417;DHT22;10869;52.238;10.716;2022-11-15T09:08:30;13.20;99.90
21417;DHT22;10869;52.238;10.716;2022-11-15T09:10:58;13.30;99.90
21417;DHT22;10869;52.238;10.716;2022-11-15T09:13:27;13.30;99.90
21417;DHT22;10869;52.238;10.716;2022-11-15T09:15:57;13.30;99.90
21417;DHT22;10869;52.238;10.716;2022-11-15T09:21:18;13.40;99.90
21417;DHT22;10869;52.238;10.716;2022-11-15T09:23:44;13.40;99.90
21417;DHT22;10869;52.238;10.716;2022-11-15T09:26:09;13.40;99.90
21417;DHT22;10869;52.238;10.716;2022-11-15T09:28:35;13.40;99.90
21417;DHT22;10869;52.238;10.716;2022-11-15T09:31:04;13.40;99.90
21417;DHT22;10869;52.238;10.716;2022-11-15T09:36:07;13.40;99.90
21417;DHT22;10869;52.238;10.716;2022-11-15T09:38:34;13.40;99.90
21417;DHT22;10869;52.238;10.716;2022-11-15T09:43:45;13.30;99.90
21417;DHT22;10869;52.238;10.716;2022-11-15T09:48:56;13.30;99.90
21417;DHT22;10869;52.238;10.716;2022-11-15T09:56:46;13.40;99.90
21417;DHT22;10869;52.238;10.716;2022-11-15T09:59:23;13.50;99.90
21417;DHT22;10869;52.238;10.716;2022-11-15T10:02:23;13.60;99.90
21417;DHT22;10869;52.238;10.716;2022-11-15T10:04:56;13.70;99.90
21417;DHT22;10869;52.238;10.716;2022-11-15T10:07:45;13.80;99.90
21417;DHT22;10869;52.238;10.716;2022-11-15T10:10:29;14.00;99.90
21417;DHT22;10869;52.238;10.716;2022-11-15T10:12:56;14.20;99.90
21417;DHT22;10869;52.238;10.716;2022-11-15T10:15:23;14.50;99.90
21417;DHT22;10869;52.238;10.716;2022-11-15T10:17:54;14.70;99.90
21417;DHT22;10869;52.238;10.716;2022-11-15T10:20:27;14.90;99.90
21417;DHT22;10869;52.238;10.716;2022-11-15T10:22:58;15.00;99.90
21417;DHT22;10869;52.238;10.716;2022-11-15T10:25:29;15.10;99.90
21417;DHT22;10869;52.238;10.716;2022-11-15T10:38:58;15.80;99.90
21417;DHT22;10869;52.238;10.716;2022-11-15T10:46:33;15.70;99.90
21417;DHT22;10869;52.238;10.716;2022-11-15T11:07:21;16.50;99.90
21417;DHT22;10869;52.238;10.716;2022-11-15T11:09:57;16.60;99.90
21417;DHT22;10869;52.238;10.716;2022-11-15T11:12:33;16.60;99.90
21417;DHT22;10869;52.238;10.716;2022-11-15T11:15:11;16.70;99.90
21417;DHT22;10869;52.238;10.716;2022-11-15T11:18:05;16.70;99.90
21417;DHT22;10869;52.238;10.716;2022-11-15T11:20:41;16.70;99.90
21417;DHT22;10869;52.238;10.716;2022-11-15T11:28:40;16.40;99.90
21417;DHT22;10869;52.238;10.716;2022-11-15T11:34:00;16.50;99.90
21417;DHT22;10869;52.238;10.716;2022-11-15T11:36:50;16.50;99.90
21417;DHT22;10869;52.238;10.716;2022-11-15T11:42:14;16.00;99.90
21417;DHT22;10869;52.238;10.716;2022-11-15T11:45:05;15.60;99.90
21417;DHT22;10869;52.238;10.716;2022-11-15T11:47:40;15.30;99.90
21417;DHT22;10869;52.238;10.716;2022-11-15T11:50:19;15.10;99.90
21417;DHT22;10869;52.238;10.716;2022-11-15T11:52:54;15.00;99.90
21417;DHT22;10869;52.238;10.716;2022-11-15T11:58:41;14.80;99.90
21417;DHT22;10869;52.238;10.716;2022-11-15T12:07:20;14.90;99.90
21417;DHT22;10869;52.238;10.716;2022-11-15T12:10:03;15.00;99.90
21417;DHT22;10869;52.238;10.716;2022-11-15T12:15:27;14.80;99.90
21417;DHT22;10869;52.238;10.716;2022-11-15T12:17:57;14.80;99.90
21417;DHT22;10869;52.238;10.716;2022-11-15T12:20:33;14.70;99.90
21417;DHT22;10869;52.238;10.716;2022-11-15T12:23:11;14.70;99.90
21417;DHT22;10869;52.238;10.716;2022-11-15T12:25:49;14.80;99.90
21417;DHT22;10869;52.238;10.716;2022-11-15T12:28:38;14.80;99.90
21417;DHT22;10869;52.238;10.716;2022-11-15T12:36:54;14.90;99.90
21417;DHT22;10869;52.238;10.716;2022-11-15T12:42:58;15.00;99.90
21417;DHT22;10869;52.238;10.716;2022-11-15T12:45:28;15.00;99.90
21417;DHT22;10869;52.238;10.716;2022-11-15T13:04:58;14.60;99.90
21417;DHT22;10869;52.238;10.716;2022-11-15T13:07:59;14.60;99.90
21417;DHT22;10869;52.238;10.716;2022-11-15T13:10:31;14.50;99.90
21417;DHT22;10869;52.238;10.716;2022-11-15T13:13:03;14.50;99.90
21417;DHT22;10869;52.238;10.716;2022-11-15T13:15:52;14.50;99.90
21417;DHT22;10869;52.238;10.716;2022-11-15T13:20:55;14.40;99.90
21417;DHT22;10869;52.238;10.716;2022-11-15T13:26:46;14.40;99.90
21417;DHT22;10869;52.238;10.716;2022-11-15T13:29:19;14.40;99.90
21417;DHT22;10869;52.238;10.716;2022-11-15T13:31:46;14.40;99.90
21417;DHT22;10869;52.238;10.716;2022-11-15T13:36:44;14.40;99.90
21417;DHT22;10869;52.238;10.716;2022-11-15T13:39:33;14.40;99.90
21417;DHT22;10869;52.238;10.716;2022-11-15T13:42:00;14.40;99.90
21417;DHT22;10869;52.238;10.716;2022-11-15T13:44:29;14.40;99.90
21417;DHT22;10869;52.238;10.716;2022-11-15T13:47:16;14.40;99.90
21417;DHT22;10869;52.238;10.716;2022-11-15T13:49:44;14.40;99.90
21417;DHT22;10869;52.238;10.716;2022-11-15T13:52:14;14.40;99.90
21417;DHT22;10869;52.238;10.716;2022-11-15T13:55:04;14.30;99.90
21417;DHT22;10869;52.238;10.716;2022-11-15T13:57:48;14.30;99.90
21417;DHT22;10869;52.238;10.716;2022-11-15T14:00:36;14.30;99.90
21417;DHT22;10869;52.238;10.716;2022-11-15T14:03:24;14.20;99.90
21417;DHT22;10869;52.238;10.716;2022-11-15T14:06:12;14.20;99.90
21417;DHT22;10869;52.238;10.716;2022-11-15T14:08:39;14.10;99.90
21417;DHT22;10869;52.238;10.716;2022-11-15T14:11:14;14.00;99.90
21417;DHT22;10869;52.238;10.716;2022-11-15T14:13:41;13.90;99.90
21417;DHT22;10869;52.238;10.716;2022-11-15T14:16:21;13.80;99.90
21417;DHT22;10869;52.238;10.716;2022-11-15T14:18:57;13.70;99.90
21417;DHT22;10869;52.238;10.716;2022-11-15T14:21:23;13.60;99.90
21417;DHT22;10869;52.238;10.716;2022-11-15T14:23:49;13.50;99.90
21417;DHT22;10869;52.238;10.716;2022-11-15T14:31:24;13.20;99.90
21417;DHT22;10869;52.238;10.716;2022-11-15T14:33:50;13.10;99.90
21417;DHT22;10869;52.238;10.716;2022-11-15T14:36:18;13.00;99.90
21417;DHT22;10869;52.238;10.716;2022-11-15T14:38:45;13.00;99.90
21417;DHT22;10869;52.238;10.716;2022-11-15T14:41:20;12.90;99.90
21417;DHT22;10869;52.238;10.716;2022-11-15T14:43:46;12.90;99.90
21417;DHT22;10869;52.238;10.716;2022-11-15T14:46:12;12.90;99.90
21417;DHT22;10869;52.238;10.716;2022-11-15T14:48:37;12.80;99.90
21417;DHT22;10869;52.238;10.716;2022-11-15T14:51:08;12.70;99.90
21417;DHT22;10869;52.238;10.716;2022-11-15T14:53:35;12.70;99.90
21417;DHT22;10869;52.238;10.716;2022-11-15T14:56:01;12.60;99.90
21417;DHT22;10869;52.238;10.716;2022-11-15T14:58:26;12.60;99.90
21417;DHT22;10869;52.238;10.716;2022-11-15T15:00:52;12.60;99.90
21417;DHT22;10869;52.238;10.716;2022-11-15T15:03:18;12.60;99.90
21417;DHT22;10869;52.238;10.716;2022-11-15T15:05:44;12.60;99.90
21417;DHT22;10869;52.238;10.716;2022-11-15T15:08:10;12.50;99.90
21417;DHT22;10869;52.238;10.716;2022-11-15T15:10:43;12.40;99.90
21417;DHT22;10869;52.238;10.716;2022-11-15T15:13:19;12.40;99.90
21417;DHT22;10869;52.238;10.716;2022-11-15T15:15:46;12.40;99.90
21417;DHT22;10869;52.238;10.716;2022-11-15T15:18:12;12.40;99.90
21417;DHT22;10869;52.238;10.716;2022-11-15T15:20:39;12.40;99.90
21417;DHT22;10869;52.238;10.716;2022-11-15T15:23:17;12.40;99.90
21417;DHT22;10869;52.238;10.716;2022-11-15T15:25:44;12.30;99.90
21417;DHT22;10869;52.238;10.716;2022-11-15T15:28:11;12.30;99.90
21417;DHT22;10869;52.238;10.716;2022-11-15T15:30:37;12.30;99.90
21417;DHT22;10869;52.238;10.716;2022-11-15T15:33:03;12.30;99.90
21417;DHT22;10869;52.238;10.716;2022-11-15T15:35:31;12.30;99.90
21417;DHT22;10869;52.238;10.716;2022-11-15T15:37:58;12.20;99.90
21417;DHT22;10869;52.238;10.716;2022-11-15T15:40:25;12.20;99.90
21417;DHT22;10869;52.238;10.716;2022-11-15T15:42:51;12.10;99.90
21417;DHT22;10869;52.238;10.716;2022-11-15T15:45:18;12.10;99.90
21417;DHT22;10869;52.238;10.716;2022-11-15T15:47:46;12.10;99.90
21417;DHT22;10869;52.238;10.716;2022-11-15T15:53:36;12.10;99.90
21417;DHT22;10869;52.238;10.716;2022-11-15T15:59:24;12.10;99.90
21417;DHT22;10869;52.238;10.716;2022-11-15T16:05:12;12.10;99.90
21417;DHT22;10869;52.238;10.716;2022-11-15T16:07:38;12.10;99.90
21417;DHT22;10869;52.238;10.716;2022-11-15T16:13:26;12.10;99.90
21417;DHT22;10869;52.238;10.716;2022-11-15T16:15:53;12.20;99.90
21417;DHT22;10869;52.238;10.716;2022-11-15T16:18:20;12.20;99.90
21417;DHT22;10869;52.238;10.716;2022-11-15T16:20:47;12.20;99.90
21417;DHT22;10869;52.238;10.716;2022-11-15T16:23:20;12.30;99.90
21417;DHT22;10869;52.238;10.716;2022-11-15T16:25:51;12.30;99.90
21417;DHT22;10869;52.238;10.716;2022-11-15T16:30:49;12.40;99.90
21417;DHT22;10869;52.238;10.716;2022-11-15T16:33:15;12.40;99.90
21417;DHT22;10869;52.238;10.716;2022-11-15T16:35:42;12.40;99.90
21417;DHT22;10869;52.238;10.716;2022-11-15T16:38:14;12.40;99.90
21417;DHT22;10869;52.238;10.716;2022-11-15T16:40:46;12.50;99.90
21417;DHT22;10869;52.238;10.716;2022-11-15T16:46:46;12.60;99.90
21417;DHT22;10869;52.238;10.716;2022-11-15T16:52:38;12.60;99.90
21417;DHT22;10869;52.238;10.716;2022-11-15T16:55:04;12.60;99.90
21417;DHT22;10869;52.238;10.716;2022-11-15T16:57:30;12.60;99.90
21417;DHT22;10869;52.238;10.716;2022-11-15T16:59:56;12.60;99.90
21417;DHT22;10869;52.238;10.716;2022-11-15T17:02:22;12.70;99.90
21417;DHT22;10869;52.238;10.716;2022-11-15T17:04:47;12.70;99.90
21417;DHT22;10869;52.238;10.716;2022-11-15T17:10:38;12.70;99.90
21417;DHT22;10869;52.238;10.716;2022-11-15T17:16:29;12.70;99.90
21417;DHT22;10869;52.238;10.716;2022-11-15T17:22:32;12.70;99.90
21417;DHT22;10869;52.238;10.716;2022-11-15T17:24:58;12.60;99.90
21417;DHT22;10869;52.238;10.716;2022-11-15T17:30:46;12.50;99.90
21417;DHT22;10869;52.238;10.716;2022-11-15T17:33:12;12.40;99.90
21417;DHT22;10869;52.238;10.716;2022-11-15T17:35:38;12.30;99.90
21417;DHT22;10869;52.238;10.716;2022-11-15T17:41:27;12.10;99.90
21417;DHT22;10869;52.238;10.716;2022-11-15T17:43:55;12.10;99.90
21417;DHT22;10869;52.238;10.716;2022-11-15T17:46:22;12.00;99.90
21417;DHT22;10869;52.238;10.716;2022-11-15T17:48:48;12.00;99.90
21417;DHT22;10869;52.238;10.716;2022-11-15T17:54:36;12.00;99.90
21417;DHT22;10869;52.238;10.716;2022-11-15T17:57:03;12.00;99.90
21417;DHT22;10869;52.238;10.716;2022-11-15T17:59:28;12.00;99.90
21417;DHT22;10869;52.238;10.716;2022-11-15T18:01:54;12.00;99.90
21417;DHT22;10869;52.238;10.716;2022-11-15T18:04:21;12.00;99.90
21417;DHT22;10869;52.238;10.716;2022-11-15T18:06:53;12.00;99.90
21417;DHT22;10869;52.238;10.716;2022-11-15T18:09:19;12.00;99.90
21417;DHT22;10869;52.238;10.716;2022-11-15T18:11:47;12.00;99.90
21417;DHT22;10869;52.238;10.716;2022-11-15T18:14:17;12.00;99.90
21417;DHT22;10869;52.238;10.716;2022-11-15T18:16:43;12.00;99.90
21417;DHT22;10869;52.238;10.716;2022-11-15T18:19:09;12.10;99.90
21417;DHT22;10869;52.238;10.716;2022-11-15T18:21:45;12.10;99.90
21417;DHT22;10869;52.238;10.716;2022-11-15T18:24:29;12.10;99.90
21417;DHT22;10869;52.238;10.716;2022-11-15T18:26:57;12.20;99.90
21417;DHT22;10869;52.238;10.716;2022-11-15T18:29:23;12.20;99.90
21417;DHT22;10869;52.238;10.716;2022-11-15T18:31:50;12.20;99.90
21417;DHT22;10869;52.238;10.716;2022-11-15T18:37:41;12.30;99.90
21417;DHT22;10869;52.238;10.716;2022-11-15T18:40:08;12.30;99.90
21417;DHT22;10869;52.238;10.716;2022-11-15T18:42:34;12.30;99.90
21417;DHT22;10869;52.238;10.716;2022-11-15T18:45:00;12.40;99.90
21417;DHT22;10869;52.238;10.716;2022-11-15T18:47:30;12.30;99.90
21417;DHT22;10869;52.238;10.716;2022-11-15T18:49:56;12.30;99.90
21417;DHT22;10869;52.238;10.716;2022-11-15T18:52:24;12.40;99.90
21417;DHT22;10869;52.238;10.716;2022-11-15T18:54:49;12.40;99.90
21417;DHT22;10869;52.238;10.716;2022-11-15T18:57:15;12.40;99.90
21417;DHT22;10869;52.238;10.716;2022-11-15T18:59:41;12.40;99.90
21417;DHT22;10869;52.238;10.716;2022-11-15T19:02:10;12.40;99.90
21417;DHT22;10869;52.238;10.716;2022-11-15T19:04:37;12.40;99.90
21417;DHT22;10869;52.238;10.716;2022-11-15T19:07:03;12.40;99.90
21417;DHT22;10869;52.238;10.716;2022-11-15T19:09:28;12.40;99.90
21417;DHT22;10869;52.238;10.716;2022-11-15T19:11:57;12.50;99.90
21417;DHT22;10869;52.238;10.716;2022-11-15T19:14:26;12.50;99.90
21417;DHT22;10869;52.238;10.716;2022-11-15T19:16:52;12.50;99.90
21417;DHT22;10869;52.238;10.716;2022-11-15T19:19:21;12.60;99.90
21417;DHT22;10869;52.238;10.716;2022-11-15T19:21:53;12.60;99.90
21417;DHT22;10869;52.238;10.716;2022-11-15T19:24:21;12.70;99.90
21417;DHT22;10869;52.238;10.716;2022-11-15T19:26:47;12.70;99.90
21417;DHT22;10869;52.238;10.716;2022-11-15T19:29:13;12.80;99.90
21417;DHT22;10869;52.238;10.716;2022-11-15T19:31:40;12.80;99.90
21417;DHT22;10869;52.238;10.716;2022-11-15T19:34:06;12.80;99.90
21417;DHT22;10869;52.238;10.716;2022-11-15T19:36:37;12.90;99.90
21417;DHT22;10869;52.238;10.716;2022-11-15T19:39:06;12.80;99.90
21417;DHT22;10869;52.238;10.716;2022-11-15T19:41:36;12.90;99.90
21417;DHT22;10869;52.238;10.716;2022-11-15T19:44:03;12.90;99.90
21417;DHT22;10869;52.238;10.716;2022-11-15T19:46:33;12.90;99.90
21417;DHT22;10869;52.238;10.716;2022-11-15T19:49:01;12.90;99.90
21417;DHT22;10869;52.238;10.716;2022-11-15T19:51:28;12.90;99.90
21417;DHT22;10869;52.238;10.716;2022-11-15T19:54:05;12.90;99.90
21417;DHT22;10869;52.238;10.716;2022-11-15T19:59:55;12.80;99.90
21417;DHT22;10869;52.238;10.716;2022-11-15T20:02:21;12.80;99.90
21417;DHT22;10869;52.238;10.716;2022-11-15T20:04:47;12.80;99.90
21417;DHT22;10869;52.238;10.716;2022-11-15T20:07:12;12.70;99.90
21417;DHT22;10869;52.238;10.716;2022-11-15T20:09:38;12.70;99.90
21417;DHT22;10869;52.238;10.716;2022-11-15T20:12:04;12.70;99.90
21417;DHT22;10869;52.238;10.716;2022-11-15T20:14:30;12.70;99.90
21417;DHT22;10869;52.238;10.716;2022-11-15T20:16:56;12.70;99.90
21417;DHT22;10869;52.238;10.716;2022-11-15T20:19:25;12.70;99.90
21417;DHT22;10869;52.238;10.716;2022-11-15T20:21:50;12.70;99.90
21417;DHT22;10869;52.238;10.716;2022-11-15T20:24:16;12.70;99.90
21417;DHT22;10869;52.238;10.716;2022-11-15T20:26:42;12.70;99.90
21417;DHT22;10869;52.238;10.716;2022-11-15T20:29:08;12.70;99.90
21417;DHT22;10869;52.238;10.716;2022-11-15T20:31:34;12.70;99.90
21417;DHT22;10869;52.238;10.716;2022-11-15T20:34:01;12.70;99.90
21417;DHT22;10869;52.238;10.716;2022-11-15T20:36:27;12.70;99.90
21417;DHT22;10869;52.238;10.716;2022-11-15T20:42:15;12.70;99.90
21417;DHT22;10869;52.238;10.716;2022-11-15T20:48:07;12.60;99.90
21417;DHT22;10869;52.238;10.716;2022-11-15T20:53:56;12.60;99.90
21417;DHT22;10869;52.238;10.716;2022-11-15T20:56:23;12.60;99.90
21417;DHT22;10869;52.238;10.716;2022-11-15T20:58:49;12.70;99.90
21417;DHT22;10869;52.238;10.716;2022-11-15T21:04:37;12.70;99.90
21417;DHT22;10869;52.238;10.716;2022-11-15T21:10:26;12.70;99.90
21417;DHT22;10869;52.238;10.716;2022-11-15T21:13:10;12.70;99.90
21417;DHT22;10869;52.238;10.716;2022-11-15T21:15:48;12.60;99.90
21417;DHT22;10869;52.238;10.716;2022-11-15T21:18:14;12.70;99.90
21417;DHT22;10869;52.238;10.716;2022-11-15T21:20:41;12.70;99.90
21417;DHT22;10869;52.238;10.716;2022-11-15T21:26:30;12.60;99.90
21417;DHT22;10869;52.238;10.716;2022-11-15T21:32:22;12.60;99.90
21417;DHT22;10869;52.238;10.716;2022-11-15T21:34:48;12.50;99.90
21417;DHT22;10869;52.238;10.716;2022-11-15T21:37:14;12.50;99.90
21417;DHT22;10869;52.238;10.716;2022-11-15T21:39:40;12.50;99.90
21417;DHT22;10869;52.238;10.716;2022-11-15T21:45:54;12.50;99.90
21417;DHT22;10869;52.238;10.716;2022-11-15T21:48:45;12.50;99.90
21417;DHT22;10869;52.238;10.716;2022-11-15T21:51:31;12.40;99.90
21417;DHT22;10869;52.238;10.716;2022-11-15T21:54:03;12.30;99.90
21417;DHT22;10869;52.238;10.716;2022-11-15T21:56:54;12.30;99.90
21417;DHT22;10869;52.238;10.716;2022-11-15T21:59:24;12.30;99.90
21417;DHT22;10869;52.238;10.716;2022-11-15T22:02:02;12.30;99.90
21417;DHT22;10869;52.238;10.716;2022-11-15T22:04:47;12.40;99.90
21417;DHT22;10869;52.238;10.716;2022-11-15T22:07:16;12.30;99.90
21417;DHT22;10869;52.238;10.716;2022-11-15T22:09:52;12.40;99.90
21417;DHT22;10869;52.238;10.716;2022-11-15T22:12:23;12.40;99.90
21417;DHT22;10869;52.238;10.716;2022-11-15T22:14:57;12.40;99.90
21417;DHT22;10869;52.238;10.716;2022-11-15T22:17:29;12.50;99.90
21417;DHT22;10869;52.238;10.716;2022-11-15T22:20:18;12.50;99.90
21417;DHT22;10869;52.238;10.716;2022-11-15T22:23:00;12.50;99.90
21417;DHT22;10869;52.238;10.716;2022-11-15T22:25:36;12.50;99.90
21417;DHT22;10869;52.238;10.716;2022-11-15T22:38:19;12.50;99.90
21417;DHT22;10869;52.238;10.716;2022-11-15T22:43:22;12.40;99.90
21417;DHT22;10869;52.238;10.716;2022-11-15T22:48:15;12.40;99.90
21417;DHT22;10869;52.238;10.716;2022-11-15T22:50:44;12.40;99.90
21417;DHT22;10869;52.238;10.716;2022-11-15T22:53:10;12.50;99.90
21417;DHT22;10869;52.238;10.716;2022-11-15T22:55:48;12.50;99.90
21417;DHT22;10869;52.238;10.716;2022-11-15T22:58:30;12.60;99.90
21417;DHT22;10869;52.238;10.716;2022-11-15T23:01:03;12.60;99.90
21417;DHT22;10869;52.238;10.716;2022-11-15T23:03:34;12.60;99.90
21417;DHT22;10869;52.238;10.716;2022-11-15T23:06:06;12.60;99.90
21417;DHT22;10869;52.238;10.716;2022-11-15T23:12:17;12.70;99.90
21417;DHT22;10869;52.238;10.716;2022-11-15T23:15:08;12.70;99.90
21417;DHT22;10869;52.238;10.716;2022-11-15T23:17:34;12.70;99.90
21417;DHT22;10869;52.238;10.716;2022-11-15T23:20:02;12.70;99.90
21417;DHT22;10869;52.238;10.716;2022-11-15T23:22:32;12.60;99.90
21417;DHT22;10869;52.238;10.716;2022-11-15T23:27:50;12.60;99.90
21417;DHT22;10869;52.238;10.716;2022-11-15T23:30:32;12.60;99.90
21417;DHT22;10869;52.238;10.716;2022-11-15T23:33:17;12.60;99.90
21417;DHT22;10869;52.238;10.716;2022-11-15T23:36:08;12.60;99.90
21417;DHT22;10869;52.238;10.716;2022-11-15T23:38:35;12.70;99.90
21417;DHT22;10869;52.238;10.716;2022-11-15T23:41:17;12.70;99.90
21417;DHT22;10869;52.238;10.716;2022-11-15T23:43:44;12.70;99.90